Time;durP1;ratioP1;P1;durP2;ratioP2;P2;SDS_P1;SDS_P2;PMS_P1;PMS_P2;Temp;Humidity;BMP_temperature;BMP_pressure;BME280_temperature;BME280_humidity;BME280_pressure;Samples;Min_cycle;Max_cycle;Signal;HPM_P1;HPM_P2
2022/01/29 00:01:02;;;;;;;18.90;17.17;;;2.50;99.90;;;;;;5020790;28;20488;-77
2022/01/29 00:03:30;;;;;;;18.73;17.13;;;2.50;99.90;;;;;;5004134;28;20456;-77
2022/01/29 00:05:58;;;;;;;19.60;17.80;;;2.50;99.90;;;;;;5020686;28;21014;-77
2022/01/29 00:08:25;;;;;;;18.93;17.23;;;2.50;99.90;;;;;;5023911;28;20534;-78
2022/01/29 00:10:55;;;;;;;19.50;17.63;;;2.50;99.90;;;;;;5024731;28;20479;-77
2022/01/29 00:13:23;;;;;;;20.00;18.17;;;2.40;99.90;;;;;;5020691;28;20872;-77
2022/01/29 00:15:50;;;;;;;19.00;17.40;;;2.40;99.90;;;;;;5021067;28;20505;-77
2022/01/29 00:18:16;;;;;;;18.73;17.10;;;2.40;99.90;;;;;;5021779;28;20446;-78
2022/01/29 00:20:43;;;;;;;19.17;17.30;;;2.40;99.90;;;;;;5023229;28;20501;-77
2022/01/29 00:23:10;;;;;;;18.70;17.00;;;2.40;99.90;;;;;;5016926;28;20487;-77
2022/01/29 00:25:37;;;;;;;18.37;16.73;;;2.40;99.90;;;;;;5024156;28;20437;-77
2022/01/29 00:28:04;;;;;;;19.23;17.43;;;2.40;99.90;;;;;;5023115;28;20442;-77
2022/01/29 00:30:38;;;;;;;18.53;16.83;;;2.40;99.90;;;;;;5017392;28;20539;-77
2022/01/29 00:33:05;;;;;;;18.43;16.80;;;2.40;99.90;;;;;;5023093;28;20470;-78
2022/01/29 00:35:32;;;;;;;18.87;17.13;;;2.40;99.90;;;;;;5024105;28;20556;-77
2022/01/29 00:37:59;;;;;;;18.03;16.53;;;2.40;99.90;;;;;;5022372;28;20889;-77
2022/01/29 00:40:26;;;;;;;19.07;17.17;;;2.40;99.90;;;;;;5025856;28;20510;-78
2022/01/29 00:42:53;;;;;;;19.27;17.37;;;2.40;99.90;;;;;;5015003;28;20956;-77
2022/01/29 00:45:23;;;;;;;18.90;17.20;;;2.50;99.90;;;;;;5020429;28;20463;-77
2022/01/29 00:47:51;;;;;;;20.77;18.60;;;2.40;99.90;;;;;;5023489;28;20502;-77
2022/01/29 00:50:18;;;;;;;20.47;18.47;;;2.40;99.90;;;;;;5029051;28;20618;-77
2022/01/29 00:52:47;;;;;;;20.60;18.70;;;2.40;99.90;;;;;;5020487;28;20503;-77
2022/01/29 00:55:14;;;;;;;20.73;18.63;;;2.40;99.90;;;;;;5018070;28;20444;-77
2022/01/29 00:57:42;;;;;;;22.07;19.93;;;2.30;99.90;;;;;;5026614;28;20450;-77
2022/01/29 01:00:12;;;;;;;20.77;18.87;;;2.30;99.90;;;;;;5026475;28;20443;-77
2022/01/29 01:02:40;;;;;;;21.40;19.30;;;2.30;99.90;;;;;;5023247;28;20454;-76
2022/01/29 01:05:09;;;;;;;20.73;18.30;;;2.30;99.90;;;;;;5023573;28;20851;-76
2022/01/29 01:07:36;;;;;;;19.17;17.47;;;2.30;99.90;;;;;;5023380;28;20434;-78
2022/01/29 01:10:04;;;;;;;19.33;17.60;;;2.20;99.90;;;;;;5022737;28;20475;-77
2022/01/29 01:12:31;;;;;;;19.00;17.30;;;2.20;99.90;;;;;;5027031;28;20493;-78
2022/01/29 01:14:58;;;;;;;20.47;18.47;;;2.20;99.90;;;;;;5027211;28;20441;-78
2022/01/29 01:17:25;;;;;;;20.00;18.17;;;2.20;99.90;;;;;;5021859;28;20856;-77
2022/01/29 01:19:52;;;;;;;18.57;17.00;;;2.20;99.90;;;;;;5022551;28;20502;-77
2022/01/29 01:22:20;;;;;;;17.30;15.87;;;2.20;99.90;;;;;;5023267;28;20447;-76
2022/01/29 01:24:48;;;;;;;18.33;16.83;;;2.20;99.90;;;;;;5000086;22;20505;-77
2022/01/29 01:27:15;;;;;;;17.63;16.07;;;2.20;99.90;;;;;;4972810;28;20538;-78
2022/01/29 01:29:42;;;;;;;18.50;16.80;;;2.20;99.90;;;;;;4973528;28;20452;-78
2022/01/29 01:32:11;;;;;;;18.17;16.57;;;2.30;99.90;;;;;;4975308;28;20484;-78
2022/01/29 01:34:42;;;;;;;18.57;16.87;;;2.30;99.90;;;;;;4976482;28;20565;-78
2022/01/29 01:37:14;;;;;;;18.83;17.07;;;2.30;99.90;;;;;;4981143;28;20471;-78
2022/01/29 01:39:42;;;;;;;17.40;15.80;;;2.30;99.90;;;;;;4985883;28;20439;-77
2022/01/29 01:42:10;;;;;;;18.27;16.47;;;2.30;99.90;;;;;;4982147;28;20690;-78
2022/01/29 01:44:41;;;;;;;18.77;16.63;;;2.30;99.90;;;;;;4962673;28;20476;-76
2022/01/29 01:47:08;;;;;;;18.87;16.93;;;2.30;99.90;;;;;;4974199;28;20451;-78
2022/01/29 01:49:35;;;;;;;19.03;17.23;;;2.40;99.90;;;;;;4977151;28;20461;-79
2022/01/29 01:52:02;;;;;;;17.63;16.20;;;2.30;99.90;;;;;;4976305;28;20482;-78
2022/01/29 01:54:29;;;;;;;17.47;15.87;;;2.40;99.90;;;;;;4971309;28;20478;-79
2022/01/29 01:56:58;;;;;;;17.70;16.07;;;2.40;99.90;;;;;;4980351;28;20881;-78
2022/01/29 01:59:25;;;;;;;15.90;14.70;;;2.40;99.90;;;;;;4978549;28;20445;-78
2022/01/29 02:01:52;;;;;;;16.87;15.47;;;2.50;99.90;;;;;;4977313;28;20857;-78
2022/01/29 02:04:19;;;;;;;16.47;15.17;;;2.50;99.90;;;;;;4968464;28;21149;-78
2022/01/29 02:06:47;;;;;;;15.03;13.83;;;2.50;99.90;;;;;;4976179;28;20505;-77
2022/01/29 02:09:15;;;;;;;16.60;15.10;;;2.50;99.90;;;;;;4978611;28;20501;-77
2022/01/29 02:11:51;;;;;;;15.80;14.50;;;2.50;99.90;;;;;;4975418;28;20504;-76
2022/01/29 02:14:20;;;;;;;16.00;14.73;;;2.50;99.90;;;;;;4982248;28;21039;-78
2022/01/29 02:16:47;;;;;;;15.70;14.50;;;2.50;99.90;;;;;;4976424;28;20533;-77
2022/01/29 02:19:14;;;;;;;17.30;15.57;;;2.50;99.90;;;;;;4974927;28;20473;-77
2022/01/29 02:21:42;;;;;;;16.67;15.27;;;2.40;99.90;;;;;;4985212;28;20453;-77
2022/01/29 02:24:09;;;;;;;16.13;14.77;;;2.40;99.90;;;;;;4979627;28;20500;-78
2022/01/29 02:26:36;;;;;;;16.97;15.47;;;2.40;99.90;;;;;;4987851;28;20492;-78
2022/01/29 02:29:04;;;;;;;16.40;14.80;;;2.40;99.90;;;;;;4980374;28;20945;-78
2022/01/29 02:31:31;;;;;;;16.70;15.30;;;2.40;99.90;;;;;;4974305;28;20473;-77
2022/01/29 02:33:58;;;;;;;16.33;14.73;;;2.40;99.90;;;;;;4972328;28;20469;-78
2022/01/29 02:36:25;;;;;;;16.90;15.60;;;2.40;99.90;;;;;;4978878;28;20975;-77
2022/01/29 02:38:53;;;;;;;16.43;14.93;;;2.40;99.90;;;;;;4974115;28;20449;-77
2022/01/29 02:41:23;;;;;;;16.87;15.30;;;2.30;99.90;;;;;;4973947;28;20438;-77
2022/01/29 02:43:51;;;;;;;16.50;14.97;;;2.30;99.90;;;;;;4970382;28;21006;-78
2022/01/29 02:46:28;;;;;;;16.77;15.30;;;2.20;99.90;;;;;;4970491;28;20459;-78
2022/01/29 02:48:56;;;;;;;17.00;15.30;;;2.20;99.90;;;;;;4980110;28;20483;-77
2022/01/29 02:51:24;;;;;;;15.93;14.63;;;2.20;99.90;;;;;;4973834;28;20510;-77
2022/01/29 02:53:52;;;;;;;16.27;15.00;;;2.20;99.90;;;;;;4976612;28;20509;-77
2022/01/29 02:56:22;;;;;;;16.20;14.80;;;2.20;99.90;;;;;;4980698;28;20453;-77
2022/01/29 02:58:48;;;;;;;16.87;15.47;;;2.20;99.90;;;;;;4976899;28;20441;-77
2022/01/29 03:01:15;;;;;;;16.13;14.73;;;2.20;99.90;;;;;;4974538;28;20203;-78
2022/01/29 03:03:42;;;;;;;17.60;16.20;;;2.20;99.90;;;;;;4972321;28;20463;-79
2022/01/29 03:06:10;;;;;;;17.03;15.47;;;2.20;99.90;;;;;;4979151;28;20458;-78
2022/01/29 03:08:37;;;;;;;16.63;15.23;;;2.10;99.90;;;;;;4977128;28;20527;-78
2022/01/29 03:11:06;;;;;;;15.87;14.73;;;2.10;99.90;;;;;;4974212;28;20489;-77
2022/01/29 03:13:33;;;;;;;16.27;14.87;;;2.10;99.90;;;;;;4980651;28;20463;-77
2022/01/29 03:16:00;;;;;;;16.80;15.40;;;2.00;99.90;;;;;;4978094;28;20444;-76
2022/01/29 03:18:27;;;;;;;16.20;14.80;;;2.00;99.90;;;;;;4974985;28;20870;-77
2022/01/29 03:20:55;;;;;;;16.40;15.10;;;2.00;99.90;;;;;;4973558;28;20438;-78
2022/01/29 03:23:22;;;;;;;16.63;15.40;;;2.00;99.90;;;;;;4969151;28;20476;-78
2022/01/29 03:25:49;;;;;;;16.30;15.00;;;2.00;99.90;;;;;;4980272;28;20454;-78
2022/01/29 03:28:17;;;;;;;16.87;15.37;;;1.90;99.90;;;;;;4975935;28;20441;-78
2022/01/29 03:30:44;;;;;;;16.63;15.20;;;1.90;99.90;;;;;;4978593;28;20457;-77
2022/01/29 03:33:12;;;;;;;15.73;14.23;;;2.00;99.90;;;;;;4970119;28;20559;-78
2022/01/29 03:35:39;;;;;;;16.53;15.03;;;2.00;99.90;;;;;;4969093;28;20456;-77
2022/01/29 03:38:06;;;;;;;16.43;15.03;;;2.00;99.90;;;;;;4968828;28;20455;-77
2022/01/29 03:40:34;;;;;;;16.93;15.40;;;2.00;99.90;;;;;;4965280;28;20450;-78
2022/01/29 03:43:04;;;;;;;16.27;14.97;;;2.00;99.90;;;;;;4971977;28;20441;-80
2022/01/29 03:45:32;;;;;;;15.67;14.30;;;2.10;99.90;;;;;;4957556;28;20813;-81
2022/01/29 03:48:00;;;;;;;15.63;14.27;;;2.10;99.90;;;;;;4961875;28;20488;-80
2022/01/29 03:50:26;;;;;;;14.37;13.17;;;2.20;99.90;;;;;;4966555;28;20567;-79
2022/01/29 03:52:53;;;;;;;14.43;13.43;;;2.20;99.90;;;;;;4975191;28;20476;-80
2022/01/29 03:55:20;;;;;;;14.03;12.93;;;2.20;99.90;;;;;;4974870;28;20450;-82
2022/01/29 03:57:47;;;;;;;13.60;12.60;;;2.30;99.90;;;;;;4957474;28;21118;-82
2022/01/29 04:00:15;;;;;;;13.77;12.80;;;2.30;99.90;;;;;;4955943;28;20463;-80
2022/01/29 04:02:43;;;;;;;13.80;12.70;;;2.40;99.90;;;;;;4975317;28;20454;-79
2022/01/29 04:05:11;;;;;;;13.47;12.57;;;2.40;99.90;;;;;;4954212;28;21017;-80
2022/01/29 04:07:38;;;;;;;13.70;12.80;;;2.40;99.90;;;;;;4951173;28;20508;-80
2022/01/29 04:10:06;;;;;;;13.83;12.87;;;2.50;99.90;;;;;;4957619;28;20476;-80
2022/01/29 04:12:39;;;;;;;13.77;12.77;;;2.50;99.90;;;;;;4968613;28;20551;-80
2022/01/29 04:15:08;;;;;;;14.37;13.17;;;2.50;99.90;;;;;;4969350;28;20890;-79
2022/01/29 04:17:34;;;;;;;14.50;13.53;;;2.60;99.90;;;;;;4978152;28;20462;-79
2022/01/29 04:20:04;;;;;;;13.53;12.60;;;2.60;99.90;;;;;;4968133;28;20812;-82
2022/01/29 04:22:30;;;;;;;14.50;13.40;;;2.60;99.90;;;;;;4962824;28;20463;-80
2022/01/29 04:24:57;;;;;;;14.23;13.20;;;2.60;99.90;;;;;;4960449;28;20544;-77
2022/01/29 04:27:35;;;;;;;13.90;13.00;;;2.60;99.90;;;;;;4980312;28;20894;-79
2022/01/29 04:30:07;;;;;;;13.93;12.77;;;2.60;99.90;;;;;;4976635;28;20465;-79
2022/01/29 04:32:56;;;;;;;13.90;12.90;;;2.60;99.90;;;;;;4979019;28;20475;-79
2022/01/29 04:35:23;;;;;;;14.50;13.30;;;2.60;99.90;;;;;;4979786;28;20539;-79
2022/01/29 04:37:50;;;;;;;14.00;12.80;;;2.60;99.90;;;;;;4971719;28;20449;-79
2022/01/29 04:40:17;;;;;;;14.23;13.23;;;2.60;99.90;;;;;;4977292;28;20457;-79
2022/01/29 04:42:44;;;;;;;14.60;13.40;;;2.60;99.90;;;;;;4973744;28;20949;-79
2022/01/29 04:45:11;;;;;;;14.47;13.47;;;2.70;99.90;;;;;;4975752;28;20549;-79
2022/01/29 04:47:37;;;;;;;14.87;13.77;;;2.60;99.90;;;;;;4984262;28;20519;-80
2022/01/29 04:50:05;;;;;;;15.03;13.67;;;2.70;99.90;;;;;;4963639;28;20523;-79
2022/01/29 04:52:33;;;;;;;14.60;13.50;;;2.70;99.90;;;;;;4985805;28;20484;-79
2022/01/29 04:55:00;;;;;;;13.93;12.93;;;2.70;99.90;;;;;;4973794;28;20461;-79
2022/01/29 04:57:27;;;;;;;14.37;13.10;;;2.70;99.90;;;;;;4982644;28;20962;-79
2022/01/29 04:59:54;;;;;;;14.17;13.17;;;2.70;99.90;;;;;;4982236;28;20452;-78
2022/01/29 05:02:20;;;;;;;14.77;13.57;;;2.70;99.90;;;;;;4973683;28;20486;-80
2022/01/29 05:04:47;;;;;;;14.00;12.90;;;2.80;99.90;;;;;;4977554;28;20468;-80
2022/01/29 05:07:14;;;;;;;14.20;13.10;;;2.80;99.90;;;;;;4979075;28;20458;-79
2022/01/29 05:09:42;;;;;;;13.43;12.43;;;2.70;99.90;;;;;;4963023;28;20486;-79
2022/01/29 05:12:12;;;;;;;13.20;12.37;;;2.70;99.90;;;;;;4983237;28;20221;-79
2022/01/29 05:14:47;;;;;;;13.40;12.50;;;2.70;99.90;;;;;;4971397;28;20553;-78
2022/01/29 05:28:14;;;;;;;12.60;11.80;;;2.80;99.90;;;;;;4987624;28;20209;-79
2022/01/29 05:30:41;;;;;;;13.27;12.20;;;2.90;99.90;;;;;;4973801;28;20236;-78
2022/01/29 05:33:08;;;;;;;14.00;13.00;;;2.90;99.90;;;;;;4976886;28;20488;-79
2022/01/29 05:35:35;;;;;;;13.47;12.67;;;2.90;99.90;;;;;;4980514;28;20950;-79
2022/01/29 05:38:01;;;;;;;13.47;12.47;;;2.90;99.90;;;;;;4965669;28;20206;-80
2022/01/29 05:40:29;;;;;;;13.10;12.20;;;3.00;99.90;;;;;;4970911;28;20460;-78
2022/01/29 05:42:56;;;;;;;12.90;12.10;;;3.00;99.90;;;;;;4967866;28;20605;-80
2022/01/29 05:45:23;;;;;;;12.80;11.90;;;3.00;99.90;;;;;;4970952;28;20452;-78
2022/01/29 05:47:50;;;;;;;13.10;12.20;;;3.00;99.90;;;;;;4979183;28;20437;-78
2022/01/29 05:50:17;;;;;;;13.17;12.23;;;3.00;99.90;;;;;;4966502;28;20277;-78
2022/01/29 05:52:43;;;;;;;13.60;12.70;;;3.10;99.90;;;;;;4977868;28;20272;-80
2022/01/29 05:55:10;;;;;;;14.00;13.00;;;3.10;99.90;;;;;;4975124;28;20579;-80
2022/01/29 05:57:38;;;;;;;13.23;12.30;;;3.10;99.90;;;;;;4983212;28;20213;-79
2022/01/29 06:00:07;;;;;;;12.80;11.80;;;3.10;99.90;;;;;;4972069;28;20257;-79
2022/01/29 06:02:42;;;;;;;12.57;11.57;;;3.10;99.90;;;;;;4982535;28;20197;-80
2022/01/29 06:05:09;;;;;;;12.77;11.93;;;3.10;99.90;;;;;;4973067;28;20900;-79
2022/01/29 06:07:36;;;;;;;12.23;11.33;;;3.10;99.90;;;;;;4979394;28;20201;-80
2022/01/29 06:10:03;;;;;;;12.37;11.57;;;3.20;99.90;;;;;;4962450;28;20446;-78
2022/01/29 06:12:32;;;;;;;12.80;11.90;;;3.20;99.90;;;;;;4985528;28;20237;-79
2022/01/29 06:15:00;;;;;;;12.00;11.13;;;3.20;99.90;;;;;;4970079;28;20217;-80
2022/01/29 06:17:26;;;;;;;11.47;10.77;;;3.20;99.90;;;;;;4960641;28;20464;-79
2022/01/29 06:20:17;;;;;;;12.10;11.30;;;3.30;99.90;;;;;;4968427;28;20663;-80
2022/01/29 06:22:44;;;;;;;12.60;11.60;;;3.30;99.90;;;;;;4960404;28;20205;-78
2022/01/29 06:25:11;;;;;;;12.37;11.43;;;3.30;99.90;;;;;;4967724;28;20225;-78
2022/01/29 06:27:38;;;;;;;12.20;11.40;;;3.30;99.90;;;;;;4967269;28;20254;-78
2022/01/29 06:30:07;;;;;;;12.30;11.40;;;3.30;99.90;;;;;;4965484;28;20210;-78
2022/01/29 06:32:34;;;;;;;11.73;10.93;;;3.30;99.90;;;;;;4961064;28;20638;-79
2022/01/29 06:35:01;;;;;;;12.27;11.43;;;3.30;99.90;;;;;;4962363;28;20222;-79
2022/01/29 06:37:28;;;;;;;12.07;11.23;;;3.20;99.90;;;;;;4962619;28;20445;-79
2022/01/29 06:39:55;;;;;;;12.03;11.30;;;3.30;99.90;;;;;;4974992;28;20206;-76
2022/01/29 06:42:22;;;;;;;11.90;11.10;;;3.30;99.90;;;;;;4968495;28;20628;-79
2022/01/29 06:44:48;;;;;;;11.57;10.83;;;3.30;99.90;;;;;;4971260;28;20630;-79
2022/01/29 06:47:17;;;;;;;11.57;10.80;;;3.40;99.90;;;;;;4960973;28;20330;-79
2022/01/29 06:49:44;;;;;;;12.10;11.17;;;3.40;99.90;;;;;;4970440;28;20198;-79
2022/01/29 06:52:11;;;;;;;11.67;10.97;;;3.50;99.90;;;;;;4972443;28;20572;-79
2022/01/29 06:54:37;;;;;;;12.07;11.17;;;3.50;99.90;;;;;;4974455;28;20599;-79
2022/01/29 06:57:05;;;;;;;12.07;11.27;;;3.50;99.90;;;;;;4975802;28;20205;-80
2022/01/29 06:59:33;;;;;;;12.20;11.40;;;3.60;99.90;;;;;;4967177;28;20264;-79
2022/01/29 07:02:00;;;;;;;11.57;10.87;;;3.60;99.90;;;;;;4976962;28;20194;-79
2022/01/29 07:04:28;;;;;;;17.13;15.83;;;3.60;99.90;;;;;;4968539;28;20228;-79
2022/01/29 07:06:55;;;;;;;14.23;13.27;;;3.70;99.90;;;;;;4970961;28;20461;-79
2022/01/29 07:09:22;;;;;;;12.67;11.83;;;3.70;99.90;;;;;;4976605;28;20438;-79
2022/01/29 07:11:55;;;;;;;11.77;11.07;;;3.70;99.90;;;;;;4976399;28;20497;-79
2022/01/29 07:14:22;;;;;;;11.43;10.63;;;3.70;99.90;;;;;;4978051;28;20219;-81
2022/01/29 07:16:49;;;;;;;11.43;10.73;;;3.80;99.90;;;;;;4976864;28;20499;-81
2022/01/29 07:19:16;;;;;;;11.20;10.50;;;3.80;99.90;;;;;;4974840;28;20209;-80
2022/01/29 07:21:44;;;;;;;11.20;10.50;;;3.80;99.90;;;;;;4979572;28;20436;-78
2022/01/29 07:24:10;;;;;;;11.10;10.40;;;3.80;99.90;;;;;;4964192;28;20292;-81
2022/01/29 07:26:37;;;;;;;10.87;10.17;;;3.80;99.90;;;;;;4969854;28;20202;-80
2022/01/29 07:29:04;;;;;;;11.57;10.83;;;3.90;99.90;;;;;;4972841;28;20343;-80
2022/01/29 07:31:31;;;;;;;11.60;10.80;;;3.90;99.90;;;;;;4963095;28;20659;-78
2022/01/29 07:33:58;;;;;;;11.10;10.40;;;3.90;99.90;;;;;;4964036;28;20222;-79
2022/01/29 07:36:25;;;;;;;11.67;10.87;;;3.90;99.90;;;;;;4980651;28;20702;-80
2022/01/29 07:38:53;;;;;;;11.40;10.70;;;3.90;99.90;;;;;;4963237;28;20202;-80
2022/01/29 07:41:20;;;;;;;11.03;10.43;;;3.90;99.90;;;;;;4971377;28;20212;-79
2022/01/29 07:43:47;;;;;;;11.30;10.60;;;4.00;99.90;;;;;;4956941;28;20723;-80
2022/01/29 07:46:14;;;;;;;11.30;10.50;;;4.00;99.90;;;;;;4968005;28;20205;-79
2022/01/29 07:48:41;;;;;;;12.00;11.10;;;4.00;99.90;;;;;;4967835;28;20979;-79
2022/01/29 07:51:08;;;;;;;11.80;11.00;;;4.00;99.90;;;;;;4964281;28;20214;-79
2022/01/29 07:53:35;;;;;;;12.30;11.40;;;4.00;99.90;;;;;;4960790;28;20493;-79
2022/01/29 07:56:03;;;;;;;12.70;11.80;;;4.10;99.90;;;;;;4957171;28;20660;-79
2022/01/29 07:58:30;;;;;;;12.83;11.83;;;4.10;99.90;;;;;;4961271;28;20737;-79
2022/01/29 08:00:57;;;;;;;11.87;11.07;;;4.10;99.90;;;;;;4964627;28;20193;-79
2022/01/29 08:03:23;;;;;;;11.30;10.50;;;4.10;99.90;;;;;;4959249;28;20230;-79
2022/01/29 08:05:50;;;;;;;11.67;10.73;;;4.10;99.90;;;;;;4956357;28;20198;-79
2022/01/29 08:08:17;;;;;;;13.23;12.00;;;4.10;99.90;;;;;;4974746;28;20702;-78
2022/01/29 08:10:44;;;;;;;11.93;11.03;;;4.20;99.90;;;;;;4963779;28;20198;-78
2022/01/29 08:13:12;;;;;;;13.30;12.30;;;4.20;99.90;;;;;;4964378;28;20726;-80
2022/01/29 08:15:39;;;;;;;12.50;11.70;;;4.20;99.90;;;;;;4964700;28;20202;-79
2022/01/29 08:18:06;;;;;;;11.77;11.07;;;4.30;99.90;;;;;;4962756;28;20221;-79
2022/01/29 08:20:33;;;;;;;12.17;11.37;;;4.30;99.90;;;;;;4968076;28;20257;-80
2022/01/29 08:23:00;;;;;;;11.23;10.53;;;4.40;99.90;;;;;;4972224;28;20198;-78
2022/01/29 08:25:27;;;;;;;11.47;10.67;;;4.40;99.90;;;;;;4978507;28;20540;-79
2022/01/29 08:27:54;;;;;;;11.63;10.80;;;4.50;99.90;;;;;;4978210;28;20201;-78
2022/01/29 08:30:22;;;;;;;12.13;11.33;;;4.60;99.90;;;;;;4971181;28;20205;-79
2022/01/29 08:32:49;;;;;;;12.30;11.50;;;4.70;99.90;;;;;;4966015;28;20206;-79
2022/01/29 08:35:16;;;;;;;12.37;11.47;;;4.70;99.90;;;;;;4960677;28;20624;-79
2022/01/29 08:37:43;;;;;;;11.77;10.97;;;4.80;99.90;;;;;;4979063;28;20204;-79
2022/01/29 08:40:11;;;;;;;12.23;11.53;;;4.80;99.90;;;;;;4968349;28;20202;-79
2022/01/29 08:42:41;;;;;;;12.53;11.63;;;4.90;99.90;;;;;;4977958;28;20201;-77
2022/01/29 08:45:10;;;;;;;11.50;10.80;;;4.90;99.90;;;;;;4964928;28;20226;-78
2022/01/29 08:47:38;;;;;;;11.50;10.80;;;4.90;99.90;;;;;;4973936;28;20448;-79
2022/01/29 08:50:06;;;;;;;11.97;11.10;;;4.90;99.90;;;;;;4973657;28;20277;-78
2022/01/29 08:52:33;;;;;;;12.83;11.90;;;4.80;99.90;;;;;;4964484;28;20239;-78
2022/01/29 08:55:00;;;;;;;12.33;11.53;;;4.80;99.90;;;;;;4973676;28;20218;-79
2022/01/29 08:57:27;;;;;;;12.03;11.20;;;4.80;99.90;;;;;;4974095;28;20205;-78
2022/01/29 08:59:54;;;;;;;12.20;11.30;;;4.90;99.90;;;;;;4970183;28;20207;-78
2022/01/29 09:02:20;;;;;;;12.03;11.13;;;5.00;99.90;;;;;;4974062;28;20203;-79
2022/01/29 09:04:49;;;;;;;13.00;11.90;;;5.40;99.90;;;;;;4960476;28;20222;-78
2022/01/29 09:07:16;;;;;;;13.23;12.03;;;5.60;99.90;;;;;;4978896;28;20205;-78
2022/01/29 09:09:45;;;;;;;12.10;11.30;;;5.80;99.90;;;;;;4972759;28;20254;-79
2022/01/29 09:12:12;;;;;;;12.90;11.83;;;5.80;99.90;;;;;;4983916;28;20201;-79
2022/01/29 09:14:39;;;;;;;12.53;11.63;;;5.80;99.90;;;;;;4986521;28;20229;-79
2022/01/29 09:17:06;;;;;;;12.17;11.17;;;5.90;99.90;;;;;;4980084;28;20225;-78
2022/01/29 09:19:33;;;;;;;13.30;12.13;;;6.00;99.90;;;;;;4967790;28;20202;-79
2022/01/29 09:22:02;;;;;;;14.30;13.30;;;5.90;99.90;;;;;;4967201;28;20332;-78
2022/01/29 09:24:28;;;;;;;14.87;13.73;;;5.90;99.90;;;;;;4973200;28;20224;-79
2022/01/29 09:26:55;;;;;;;13.90;12.93;;;5.70;99.90;;;;;;4975388;28;20198;-79
2022/01/29 09:29:22;;;;;;;14.60;13.50;;;5.60;99.90;;;;;;4979873;28;20199;-79
2022/01/29 09:31:49;;;;;;;12.07;11.03;;;5.60;99.90;;;;;;4970987;28;20209;-79
2022/01/29 09:34:16;;;;;;;16.67;15.40;;;5.60;99.90;;;;;;4965172;28;20245;-79
2022/01/29 09:36:44;;;;;;;12.43;11.37;;;5.60;99.90;;;;;;4979194;28;20691;-79
2022/01/29 09:39:13;;;;;;;13.80;12.50;;;5.60;99.90;;;;;;4975013;28;20695;-79
2022/01/29 09:41:44;;;;;;;10.33;9.20;;;5.60;99.90;;;;;;4987195;28;20240;-79
2022/01/29 09:44:12;;;;;;;7.57;5.53;;;5.80;99.90;;;;;;4977592;28;20223;-78
2022/01/29 09:46:40;;;;;;;6.43;5.10;;;5.90;99.90;;;;;;4980120;28;20199;-79
2022/01/29 09:49:07;;;;;;;8.13;5.33;;;5.90;99.90;;;;;;4962919;28;20225;-78
2022/01/29 09:51:37;;;;;;;13.37;12.37;;;5.90;99.90;;;;;;4971220;28;20195;-79
2022/01/29 09:54:04;;;;;;;12.17;11.23;;;5.80;99.90;;;;;;4980283;28;20599;-81
2022/01/29 09:56:33;;;;;;;10.40;9.40;;;5.70;99.90;;;;;;4962939;28;20213;-79
2022/01/29 09:59:00;;;;;;;7.27;5.00;;;5.80;99.90;;;;;;4967214;28;20245;-79
2022/01/29 10:01:27;;;;;;;8.23;5.27;;;5.80;99.90;;;;;;4965112;28;20199;-78
2022/01/29 10:04:02;;;;;;;8.60;7.80;;;6.00;99.90;;;;;;4965835;28;20293;-80
2022/01/29 10:06:29;;;;;;;8.93;6.23;;;6.20;99.90;;;;;;4960507;28;20203;-79
2022/01/29 10:08:56;;;;;;;8.87;7.97;;;6.40;99.90;;;;;;4967130;28;20201;-78
2022/01/29 10:11:25;;;;;;;9.97;9.10;;;6.40;99.90;;;;;;4961354;28;20206;-78
2022/01/29 10:13:59;;;;;;;8.73;5.40;;;6.20;99.90;;;;;;4966944;28;20230;-79
2022/01/29 10:16:27;;;;;;;12.33;11.10;;;6.10;99.90;;;;;;4967049;28;20211;-78
2022/01/29 10:19:00;;;;;;;13.53;12.40;;;6.10;99.90;;;;;;4969216;28;20887;-80
2022/01/29 10:21:30;;;;;;;12.87;11.70;;;6.00;99.90;;;;;;4978812;28;20301;-79
2022/01/29 10:24:05;;;;;;;13.43;12.37;;;6.00;99.90;;;;;;4955398;28;20321;-79
2022/01/29 10:26:34;;;;;;;13.07;11.97;;;5.90;99.90;;;;;;4966803;28;20202;-79
2022/01/29 10:29:05;;;;;;;13.63;12.53;;;5.90;99.90;;;;;;4978053;28;20210;-78
2022/01/29 10:31:41;;;;;;;12.80;11.80;;;5.80;99.90;;;;;;4961565;28;20202;-80
2022/01/29 10:34:19;;;;;;;12.43;11.33;;;5.70;99.90;;;;;;4971251;28;20233;-79
2022/01/29 10:36:46;;;;;;;12.10;11.10;;;5.70;99.90;;;;;;4972788;28;20202;-79
2022/01/29 10:39:13;;;;;;;11.83;10.93;;;5.70;99.90;;;;;;4965719;28;20265;-79
2022/01/29 10:41:40;;;;;;;12.63;11.63;;;5.70;99.90;;;;;;4979715;28;20292;-79
2022/01/29 10:44:12;;;;;;;12.50;11.53;;;5.70;99.90;;;;;;4974315;28;20227;-79
2022/01/29 10:46:42;;;;;;;12.90;11.80;;;5.80;99.90;;;;;;4980285;28;20202;-79
2022/01/29 10:49:17;;;;;;;12.33;11.23;;;5.90;99.90;;;;;;4975212;28;20230;-80
2022/01/29 10:51:55;;;;;;;12.67;11.60;;;5.90;99.90;;;;;;4965184;28;20578;-80
2022/01/29 10:54:22;;;;;;;11.83;11.03;;;6.00;99.90;;;;;;4971917;28;20254;-81
2022/01/29 10:56:52;;;;;;;12.37;11.47;;;6.00;99.90;;;;;;4978491;28;20195;-82
2022/01/29 10:59:21;;;;;;;11.73;10.93;;;6.20;99.90;;;;;;4985093;28;20216;-82
2022/01/29 11:01:56;;;;;;;11.90;11.00;;;6.50;99.90;;;;;;4986181;28;20255;-82
2022/01/29 11:04:25;;;;;;;11.20;10.40;;;6.70;99.90;;;;;;4980432;28;20225;-82
2022/01/29 11:06:53;;;;;;;11.40;10.70;;;6.80;99.90;;;;;;4979979;28;20198;-79
2022/01/29 11:09:22;;;;;;;10.90;10.20;;;6.80;99.90;;;;;;4976040;28;20667;-78
2022/01/29 11:11:49;;;;;;;11.80;10.90;;;6.90;99.90;;;;;;4967273;28;20200;-80
2022/01/29 11:14:18;;;;;;;11.20;10.50;;;6.90;99.90;;;;;;4963931;28;20231;-80
2022/01/29 11:16:47;;;;;;;8.97;8.27;;;6.90;99.90;;;;;;4959578;28;20230;-81
2022/01/29 11:19:15;;;;;;;5.63;4.47;;;6.90;99.90;;;;;;4959732;28;20206;-79
2022/01/29 11:21:43;;;;;;;4.27;3.87;;;7.10;99.90;;;;;;4964075;28;20199;-82
2022/01/29 11:24:12;;;;;;;3.53;3.23;;;7.20;99.90;;;;;;4954834;28;20228;-83
2022/01/29 11:26:40;;;;;;;5.37;4.87;;;7.50;99.90;;;;;;4966622;28;20200;-83
2022/01/29 11:29:24;;;;;;;4.40;4.00;;;7.60;99.90;;;;;;4967842;28;20212;-81
2022/01/29 11:32:33;;;;;;;4.63;3.63;;;7.70;99.90;;;;;;4953467;28;20209;-82
2022/01/29 11:35:17;;;;;;;3.70;3.20;;;7.80;99.90;;;;;;4946844;28;20554;-82
2022/01/29 11:37:54;;;;;;;6.15;5.75;;;7.90;99.90;;;;;;4953786;28;20471;-82
2022/01/29 11:40:32;;;;;;;11.48;10.38;;;7.90;99.90;;;;;;4955888;28;20439;-81
2022/01/29 11:43:24;;;;;;;11.47;10.70;;;7.90;99.90;;;;;;4958579;28;20201;-80
2022/01/29 11:45:53;;;;;;;10.93;10.23;;;7.90;99.90;;;;;;4968428;28;20214;-82
2022/01/29 11:48:51;;;;;;;5.00;4.60;;;8.00;99.90;;;;;;4969026;28;20256;-81
2022/01/29 11:51:44;;;;;;;5.20;4.80;;;8.10;99.90;;;;;;4962785;28;20198;-82
2022/01/29 11:54:15;;;;;;;3.23;2.97;;;8.20;99.90;;;;;;4969526;28;20233;-83
2022/01/29 11:56:44;;;;;;;5.43;4.27;;;8.30;99.90;;;;;;4963721;28;20203;-83
2022/01/29 11:59:30;;;;;;;3.67;3.37;;;8.30;99.90;;;;;;4959347;28;20212;-83
2022/01/29 12:02:02;;;;;;;5.73;5.30;;;8.30;99.90;;;;;;4972420;28;20233;-82
2022/01/29 12:05:07;;;;;;;10.13;9.53;;;8.30;99.90;;;;;;4961427;28;20264;-82
2022/01/29 12:07:55;;;;;;;10.27;9.67;;;8.40;99.90;;;;;;4968250;28;20239;-80
2022/01/29 12:10:36;;;;;;;10.40;9.60;;;8.40;99.90;;;;;;4966515;28;20260;-79
2022/01/29 12:13:11;;;;;;;9.90;9.30;;;8.40;99.90;;;;;;4976333;28;20224;-80
2022/01/29 12:15:39;;;;;;;10.03;9.43;;;8.40;99.90;;;;;;4973751;28;20220;-80
2022/01/29 12:18:26;;;;;;;9.80;9.20;;;8.50;99.90;;;;;;4971068;28;20566;-80
2022/01/29 12:20:53;;;;;;;10.00;9.40;;;8.70;99.90;;;;;;4960269;28;20198;-81
2022/01/29 12:23:19;;;;;;;10.20;9.50;;;8.70;99.90;;;;;;4972495;28;20324;-80
2022/01/29 12:25:55;;;;;;;9.97;9.47;;;8.80;99.90;;;;;;4965457;28;20246;-80
2022/01/29 12:28:22;;;;;;;10.40;9.70;;;8.90;99.90;;;;;;4963502;28;20241;-80
2022/01/29 12:30:49;;;;;;;10.80;9.97;;;8.90;99.90;;;;;;4964957;28;20210;-79
2022/01/29 12:33:17;;;;;;;10.60;10.00;;;9.10;99.90;;;;;;4959464;28;20227;-79
2022/01/29 12:35:45;;;;;;;9.73;9.13;;;9.00;99.90;;;;;;4962603;28;20214;-80
2022/01/29 12:38:14;;;;;;;10.53;9.80;;;8.90;99.90;;;;;;4972180;28;20288;-79
2022/01/29 12:40:42;;;;;;;10.10;9.50;;;8.90;99.90;;;;;;4977140;28;20248;-81
2022/01/29 12:43:24;;;;;;;9.83;9.17;;;8.90;99.90;;;;;;4975278;28;20229;-79
2022/01/29 12:45:51;;;;;;;10.13;9.43;;;8.90;99.90;;;;;;4970223;28;20617;-79
2022/01/29 12:48:18;;;;;;;9.77;9.17;;;8.90;99.90;;;;;;4959958;28;20211;-80
2022/01/29 12:50:46;;;;;;;9.80;9.13;;;8.90;99.90;;;;;;4967832;28;20205;-79
2022/01/29 12:53:18;;;;;;;10.03;9.37;;;8.80;99.90;;;;;;4960488;28;20217;-79
2022/01/29 12:55:58;;;;;;;10.10;9.50;;;8.70;99.90;;;;;;4963157;28;20714;-80
2022/01/29 12:58:31;;;;;;;10.13;9.50;;;8.70;99.90;;;;;;4961549;28;20676;-80
2022/01/29 13:01:05;;;;;;;9.70;9.10;;;8.70;99.90;;;;;;4966113;28;20211;-80